Time;durP1;ratioP1;P1;durP2;ratioP2;P2;SDS_P1;SDS_P2;PMS_P1;PMS_P2;Temp;Humidity;BMP_temperature;BMP_pressure;BME280_temperature;BME280_humidity;BME280_pressure;Samples;Min_cycle;Max_cycle;Signal;HPM_P1;HPM_P2
2023/12/21 00:01:33;;;;;;;3.45;1.23;;;;;;;18.96;45.18;100706.81;5066656;28;20275;-70
2023/12/21 00:03:59;;;;;;;4.10;1.20;;;;;;;19.05;45.26;100731.56;5047159;28;20070;-69
2023/12/21 00:06:24;;;;;;;2.88;1.35;;;;;;;18.92;45.38;100699.28;5066351;28;20064;-71
2023/12/21 00:08:49;;;;;;;3.53;1.20;;;;;;;19.00;45.26;100707.38;5067020;28;20043;-69
2023/12/21 00:11:15;;;;;;;3.58;1.20;;;;;;;19.03;45.29;100697.38;5048242;28;20067;-69
2023/12/21 00:13:40;;;;;;;5.55;1.30;;;;;;;19.01;45.37;100682.66;5065373;28;20046;-69
2023/12/21 00:16:06;;;;;;;4.65;1.50;;;;;;;19.01;45.21;100688.75;5066244;28;20036;-69
2023/12/21 00:18:31;;;;;;;3.78;1.23;;;;;;;18.99;45.26;100674.88;5065891;28;20025;-68
2023/12/21 00:20:56;;;;;;;3.33;1.10;;;;;;;18.94;45.36;100668.31;5065909;28;20131;-69
2023/12/21 00:23:21;;;;;;;4.55;1.50;;;;;;;18.97;45.31;100676.78;5066021;28;20265;-68
2023/12/21 00:25:47;;;;;;;4.93;1.30;;;;;;;18.90;45.28;100666.88;5066672;28;20032;-67
2023/12/21 00:28:12;;;;;;;3.10;1.30;;;;;;;18.95;45.27;100667.34;5065401;28;20041;-69
2023/12/21 00:30:37;;;;;;;5.00;1.55;;;;;;;18.94;45.31;100657.75;5066398;28;20024;-68
2023/12/21 00:33:03;;;;;;;3.30;1.25;;;;;;;18.85;45.36;100638.28;5066124;28;20163;-69
2023/12/21 00:35:28;;;;;;;3.65;1.10;;;;;;;18.92;45.07;100646.47;5066027;28;20059;-69
2023/12/21 00:37:53;;;;;;;4.30;1.20;;;;;;;18.92;45.17;100649.13;5066516;28;20036;-68
2023/12/21 00:40:19;;;;;;;3.67;1.43;;;;;;;18.84;45.50;100636.59;5066648;28;20175;-68
2023/12/21 00:42:45;;;;;;;4.07;1.17;;;;;;;18.79;45.35;100629.03;5066394;28;20270;-69
2023/12/21 00:45:11;;;;;;;3.38;1.10;;;;;;;18.83;45.33;100634.88;5067865;28;20021;-67
2023/12/21 00:47:36;;;;;;;4.63;1.30;;;;;;;18.89;45.27;100628.25;5068034;28;20059;-68
2023/12/21 00:50:01;;;;;;;4.05;1.50;;;;;;;18.85;45.39;100617.16;5068216;28;20021;-69
2023/12/21 00:52:26;;;;;;;4.32;1.23;;;;;;;18.87;45.15;100599.34;5067721;28;20040;-69
2023/12/21 00:54:52;;;;;;;3.28;1.25;;;;;;;18.84;45.39;100602.25;5068752;28;20041;-67
2023/12/21 00:57:17;;;;;;;3.85;1.23;;;;;;;18.85;45.42;100602.13;5071686;28;20488;-69
2023/12/21 00:59:42;;;;;;;3.88;1.33;;;;;;;18.83;45.40;100593.50;5071611;28;20078;-68
2023/12/21 01:02:08;;;;;;;3.43;1.10;;;;;;;18.80;45.50;100587.63;5070674;28;20112;-70
2023/12/21 01:04:33;;;;;;;5.30;1.60;;;;;;;18.82;45.24;100599.72;5070592;28;20307;-68
2023/12/21 01:06:58;;;;;;;3.93;1.57;;;;;;;18.70;45.52;100561.19;5071080;28;20033;-70
2023/12/21 01:09:23;;;;;;;4.53;1.30;;;;;;;18.67;45.30;100554.41;5070001;28;20313;-69
2023/12/21 01:11:48;;;;;;;3.97;1.30;;;;;;;18.78;45.39;100566.63;5068741;28;20047;-70
2023/12/21 01:14:14;;;;;;;5.43;1.27;;;;;;;18.79;45.43;100564.84;5068609;28;20028;-70
2023/12/21 01:16:39;;;;;;;3.53;1.25;;;;;;;18.74;45.39;100554.69;5068165;28;20265;-70
2023/12/21 01:19:04;;;;;;;5.00;1.20;;;;;;;18.68;45.27;100539.38;5068749;28;20453;-68
2023/12/21 01:21:30;;;;;;;4.15;1.30;;;;;;;18.62;45.24;100530.19;5068723;28;20046;-68
2023/12/21 01:23:55;;;;;;;5.18;1.38;;;;;;;18.74;45.28;100562.63;5068883;28;20020;-68
2023/12/21 01:26:20;;;;;;;5.43;1.67;;;;;;;18.74;45.52;100574.94;5068082;28;20203;-69
2023/12/21 01:28:45;;;;;;;4.57;1.30;;;;;;;18.67;45.42;100551.75;5068441;28;20036;-70
2023/12/21 01:31:11;;;;;;;3.88;1.20;;;;;;;18.64;45.44;100545.91;5069494;28;20031;-70
2023/12/21 01:33:36;;;;;;;3.53;1.30;;;;;;;18.64;45.38;100543.25;5069168;28;20040;-71
2023/12/21 01:36:01;;;;;;;3.75;1.20;;;;;;;18.71;45.57;100547.03;5068811;28;20261;-69
2023/12/21 01:38:27;;;;;;;4.72;1.48;;;;;;;18.71;45.53;100544.41;5069292;28;20052;-69
2023/12/21 01:40:52;;;;;;;3.95;1.20;;;;;;;18.59;45.29;100519.09;5069135;28;20036;-69
2023/12/21 01:43:17;;;;;;;2.90;1.00;;;;;;;18.60;45.45;100518.94;5068612;28;20051;-68
2023/12/21 01:45:42;;;;;;;5.22;1.33;;;;;;;18.68;45.42;100531.47;5068115;28;20493;-69
2023/12/21 01:48:10;;;;;;;3.08;1.30;;;;;;;18.59;45.47;100517.28;5068197;28;20143;-68
2023/12/21 01:50:36;;;;;;;5.95;1.30;;;;;;;18.68;45.76;100528.84;5068147;28;20461;-70
2023/12/21 01:53:02;;;;;;;3.80;1.33;;;;;;;18.56;45.35;100504.34;5067790;28;20036;-68
2023/12/21 01:55:29;;;;;;;3.58;1.20;;;;;;;18.65;45.54;100511.44;5068315;28;20050;-68
2023/12/21 01:57:54;;;;;;;4.60;1.35;;;;;;;18.62;45.52;100502.97;5059780;28;20039;-70
2023/12/21 02:00:20;;;;;;;3.70;1.30;;;;;;;18.48;45.38;100488.34;5068354;28;20028;-69
2023/12/21 02:02:46;;;;;;;4.10;1.55;;;;;;;18.62;45.64;100510.91;5061735;28;20032;-70
2023/12/21 02:05:11;;;;;;;4.55;1.42;;;;;;;18.64;45.44;100517.72;5061303;28;20374;-70
2023/12/21 02:07:36;;;;;;;3.15;1.25;;;;;;;18.63;45.43;100526.59;5066882;28;20059;-70
2023/12/21 02:10:02;;;;;;;3.35;1.20;;;;;;;18.56;45.54;100514.06;5068332;28;20051;-71
2023/12/21 02:12:27;;;;;;;3.38;1.20;;;;;;;18.53;45.59;100514.34;5068285;28;20366;-69
2023/12/21 02:14:53;;;;;;;3.40;1.30;;;;;;;18.53;45.71;100514.34;5067992;28;20036;-71
2023/12/21 02:17:20;;;;;;;3.80;1.38;;;;;;;18.61;45.65;100523.28;5068373;28;20119;-70
2023/12/21 02:19:47;;;;;;;3.42;1.30;;;;;;;18.51;45.54;100489.91;5068342;28;20491;-70
2023/12/21 02:22:15;;;;;;;4.68;1.38;;;;;;;18.61;45.84;100509.22;5068299;28;20033;-69
2023/12/21 02:24:40;;;;;;;4.18;1.33;;;;;;;18.58;45.66;100505.06;5067866;28;20136;-69
2023/12/21 02:27:05;;;;;;;2.97;1.17;;;;;;;18.50;45.64;100494.34;5068021;28;20041;-68
2023/12/21 02:29:31;;;;;;;3.13;1.10;;;;;;;18.58;45.50;100498.94;5067892;28;20040;-70
2023/12/21 02:31:56;;;;;;;4.68;1.48;;;;;;;18.51;45.79;100482.00;5067331;28;20029;-69
2023/12/21 02:34:21;;;;;;;4.63;1.50;;;;;;;18.49;45.54;100468.94;5067304;28;20024;-68
2023/12/21 02:36:47;;;;;;;4.40;1.70;;;;;;;18.55;45.48;100467.53;5067322;28;20124;-70
2023/12/21 02:39:12;;;;;;;4.23;1.70;;;;;;;18.49;45.83;100458.38;5067450;28;20028;-69
2023/12/21 02:41:37;;;;;;;3.50;1.10;;;;;;;18.47;45.88;100453.22;5066961;28;20345;-71
2023/12/21 02:44:03;;;;;;;5.20;1.50;;;;;;;18.53;45.66;100451.84;5067462;28;20032;-70
2023/12/21 02:46:28;;;;;;;4.03;1.40;;;;;;;18.43;45.48;100425.44;5068081;28;20261;-71
2023/12/21 02:48:53;;;;;;;6.22;1.40;;;;;;;18.54;45.63;100457.97;5067863;28;20094;-69
2023/12/21 02:51:19;;;;;;;4.93;1.45;;;;;;;18.44;45.60;100437.66;5067216;28;20035;-68
2023/12/21 02:53:44;;;;;;;5.20;1.65;;;;;;;18.44;46.04;100447.41;5067727;28;20029;-69
2023/12/21 02:56:09;;;;;;;4.20;1.55;;;;;;;18.51;45.56;100456.41;5067885;28;20032;-69
2023/12/21 02:58:36;;;;;;;4.82;1.33;;;;;;;18.49;45.82;100446.00;5067127;28;20028;-70
2023/12/21 03:01:01;;;;;;;4.15;1.33;;;;;;;18.43;45.63;100429.88;5067379;28;20033;-70
2023/12/21 03:03:26;;;;;;;4.20;1.35;;;;;;;18.51;45.59;100445.88;5059688;28;20463;-71
2023/12/21 03:05:52;;;;;;;4.65;1.30;;;;;;;18.48;45.86;100436.44;5066552;28;20033;-70
2023/12/21 03:08:17;;;;;;;4.65;1.35;;;;;;;18.48;45.72;100443.50;5065140;28;20037;-70
2023/12/21 03:10:42;;;;;;;3.97;1.27;;;;;;;18.48;45.78;100441.72;5065153;28;20497;-70
2023/12/21 03:13:07;;;;;;;4.40;1.70;;;;;;;18.40;45.63;100416.97;5067291;28;20265;-69
2023/12/21 03:15:33;;;;;;;4.30;1.48;;;;;;;18.47;45.79;100424.22;5067320;28;20059;-68
2023/12/21 03:17:58;;;;;;;4.32;1.40;;;;;;;18.47;45.96;100399.63;5066724;28;20024;-70
2023/12/21 03:20:23;;;;;;;4.50;1.38;;;;;;;18.45;45.85;100377.81;5067072;28;20098;-70
2023/12/21 03:22:49;;;;;;;3.80;1.30;;;;;;;18.46;45.62;100366.28;5066823;28;20045;-70
2023/12/21 03:25:14;;;;;;;4.18;1.33;;;;;;;18.37;45.81;100335.47;5066450;28;20127;-70
2023/12/21 03:27:40;;;;;;;5.20;1.50;;;;;;;18.35;45.72;100330.31;5066644;28;20036;-69
2023/12/21 03:30:06;;;;;;;4.72;1.50;;;;;;;18.44;45.82;100347.13;5066904;28;20095;-69
2023/12/21 03:32:31;;;;;;;4.65;1.60;;;;;;;18.41;45.59;100342.97;5067190;28;20066;-70
2023/12/21 03:34:56;;;;;;;5.13;1.60;;;;;;;18.44;45.71;100349.78;5066260;28;20028;-70
2023/12/21 03:37:27;;;;;;;5.57;1.30;;;;;;;18.34;46.01;100325.19;5048703;28;20119;-68
2023/12/21 03:39:53;;;;;;;4.03;1.33;;;;;;;18.42;45.92;100334.09;5066954;28;20522;-70
2023/12/21 03:42:18;;;;;;;4.57;1.40;;;;;;;18.35;45.84;100322.41;5066627;28;20031;-71
2023/12/21 03:44:44;;;;;;;4.93;1.27;;;;;;;18.23;45.54;100291.84;5066429;28;20033;-68
2023/12/21 03:47:09;;;;;;;3.65;1.38;;;;;;;18.26;45.95;100291.56;5066284;28;20045;-68
2023/12/21 03:49:34;;;;;;;4.67;1.40;;;;;;;18.31;45.98;100305.19;5066820;28;20040;-69
2023/12/21 03:51:59;;;;;;;4.33;1.37;;;;;;;18.40;45.83;100309.63;5066480;28;20257;-70
2023/12/21 03:54:25;;;;;;;3.80;1.40;;;;;;;18.30;45.90;100285.88;5066494;28;20265;-69
2023/12/21 03:56:50;;;;;;;4.87;1.67;;;;;;;18.30;45.94;100296.44;5066666;28;20293;-69
2023/12/21 03:59:15;;;;;;;3.67;1.30;;;;;;;18.31;45.97;100292.00;5066513;28;20327;-70
2023/12/21 04:01:40;;;;;;;4.43;1.35;;;;;;;18.30;45.87;100287.69;5065871;28;20481;-69
2023/12/21 04:04:06;;;;;;;4.07;1.45;;;;;;;18.36;45.83;100273.97;5063359;28;20040;-69
2023/12/21 04:06:32;;;;;;;4.97;1.52;;;;;;;18.34;45.90;100281.19;5063339;28;20037;-68
2023/12/21 04:08:57;;;;;;;3.75;1.13;;;;;;;18.27;45.89;100264.25;5066381;28;20044;-70
2023/12/21 04:11:23;;;;;;;4.38;1.33;;;;;;;18.36;45.83;100278.38;5066015;28;20481;-69
2023/12/21 04:13:49;;;;;;;4.30;1.37;;;;;;;18.34;45.93;100286.47;5066720;28;20116;-70
2023/12/21 04:16:14;;;;;;;3.92;1.38;;;;;;;18.27;46.01;100267.69;5066417;28;20269;-69
2023/12/21 04:18:39;;;;;;;4.47;1.95;;;;;;;18.25;46.15;100245.91;5066666;28;20082;-69
2023/12/21 04:21:08;;;;;;;5.03;1.80;;;;;;;18.29;46.12;100255.22;5066264;28;20421;-70
2023/12/21 04:23:34;;;;;;;5.82;1.55;;;;;;;18.32;45.86;100254.09;5065728;28;20107;-71
2023/12/21 04:25:59;;;;;;;4.95;1.45;;;;;;;18.27;45.84;100238.69;5066099;28;20120;-69
2023/12/21 04:28:24;;;;;;;5.88;1.60;;;;;;;18.34;46.01;100236.34;5065983;28;20033;-71
2023/12/21 04:30:49;;;;;;;5.30;2.03;;;;;;;18.36;45.90;100244.09;5068006;28;20036;-71
2023/12/21 04:33:15;;;;;;;5.30;1.73;;;;;;;18.31;45.96;100245.34;5070065;28;20039;-71
2023/12/21 04:35:43;;;;;;;4.55;1.52;;;;;;;18.36;45.77;100246.72;5069736;28;20264;-68
2023/12/21 04:38:09;;;;;;;6.15;1.70;;;;;;;18.32;46.18;100222.44;5069594;28;20419;-69
2023/12/21 04:40:34;;;;;;;4.97;1.70;;;;;;;18.35;46.05;100216.06;5069801;28;20034;-68
2023/12/21 04:42:59;;;;;;;5.50;1.80;;;;;;;18.30;45.90;100190.09;5065158;28;20032;-71
2023/12/21 04:45:25;;;;;;;4.88;1.70;;;;;;;18.34;45.90;100207.31;5065565;28;20093;-70
2023/12/21 04:47:50;;;;;;;6.38;1.70;;;;;;;18.26;45.89;100201.91;5069374;28;20048;-69
2023/12/21 04:50:16;;;;;;;4.53;1.60;;;;;;;18.33;45.82;100215.38;5069612;28;20029;-70
2023/12/21 04:52:41;;;;;;;4.40;1.70;;;;;;;18.34;46.08;100195.91;5069046;28;20028;-69
2023/12/21 04:55:07;;;;;;;5.38;1.80;;;;;;;18.32;46.03;100174.97;5069792;28;20143;-69
2023/12/21 04:57:33;;;;;;;6.20;1.92;;;;;;;18.23;45.81;100152.91;5069517;28;20374;-68
2023/12/21 04:59:58;;;;;;;5.05;1.52;;;;;;;18.28;45.87;100163.88;5069562;28;20032;-70
2023/12/21 05:02:23;;;;;;;4.60;1.65;;;;;;;18.32;46.12;100156.50;5068136;28;20052;-69
2023/12/21 05:04:49;;;;;;;5.28;1.70;;;;;;;18.22;46.02;100142.50;5063622;28;20488;-69
2023/12/21 05:07:14;;;;;;;4.93;1.90;;;;;;;18.21;45.88;100133.75;5068815;28;20162;-70
2023/12/21 05:09:39;;;;;;;6.03;1.63;;;;;;;18.20;46.03;100112.78;5051210;28;20053;-69
2023/12/21 05:12:05;;;;;;;4.40;1.70;;;;;;;18.21;46.30;100120.56;5068879;28;20028;-69
2023/12/21 05:14:30;;;;;;;4.72;1.67;;;;;;;18.20;45.91;100131.25;5069058;28;20267;-69
2023/12/21 05:16:56;;;;;;;5.57;1.70;;;;;;;18.20;45.86;100128.59;5069368;28;20138;-69
2023/12/21 05:19:21;;;;;;;5.28;1.77;;;;;;;18.18;45.97;100123.47;5069636;28;20032;-69
2023/12/21 05:21:46;;;;;;;4.95;1.50;;;;;;;18.18;46.25;100127.94;5069136;28;20484;-69
2023/12/21 05:24:11;;;;;;;5.63;1.60;;;;;;;18.27;46.23;100151.63;5069007;28;20032;-70
2023/12/21 05:26:37;;;;;;;5.07;1.80;;;;;;;18.23;46.23;100145.00;5069456;28;20090;-70
2023/12/21 05:29:02;;;;;;;5.03;1.90;;;;;;;18.24;46.08;100140.56;5069324;28;20028;-69
2023/12/21 05:31:27;;;;;;;5.50;1.70;;;;;;;18.18;45.91;100106.84;5069336;28;20643;-71
2023/12/21 05:33:53;;;;;;;6.03;1.60;;;;;;;18.25;46.22;100115.84;5069195;28;20528;-70
2023/12/21 05:36:24;;;;;;;5.28;1.92;;;;;;;18.26;46.06;100104.31;5068942;28;20105;-69
2023/12/21 05:38:50;;;;;;;4.57;1.67;;;;;;;18.24;46.25;100112.34;5068736;28;20477;-71
2023/12/21 05:41:16;;;;;;;5.25;1.60;;;;;;;18.18;46.22;100104.19;5062713;28;20045;-69
2023/12/21 05:43:43;;;;;;;3.58;1.23;;;;;;;18.23;46.14;100094.91;5066500;28;20044;-70
2023/12/21 05:46:08;;;;;;;4.30;1.63;;;;;;;18.21;46.22;100102.09;5069081;28;20075;-70
2023/12/21 05:48:34;;;;;;;5.47;1.60;;;;;;;18.23;46.02;100113.34;5068936;28;20413;-69
2023/12/21 05:50:59;;;;;;;5.00;1.38;;;;;;;18.17;46.23;100108.66;5068343;28;20033;-70
2023/12/21 05:53:26;;;;;;;4.22;1.25;;;;;;;18.16;46.15;100100.88;5068499;28;20072;-70
2023/12/21 05:55:51;;;;;;;4.55;1.77;;;;;;;18.22;46.01;100116.94;5065710;28;20881;-68
2023/12/21 05:58:17;;;;;;;5.55;1.67;;;;;;;18.15;46.19;100100.06;5064613;28;20043;-70
2023/12/21 06:00:42;;;;;;;5.43;1.42;;;;;;;18.21;46.33;100106.56;5067788;28;20032;-70
2023/12/21 06:03:07;;;;;;;4.10;1.70;;;;;;;18.22;46.28;100119.59;5061397;28;20060;-70
2023/12/21 06:05:33;;;;;;;6.05;1.40;;;;;;;18.21;46.04;100114.47;5045871;28;20815;-69
2023/12/21 06:07:58;;;;;;;4.22;1.50;;;;;;;18.22;46.30;100111.69;5067608;28;20028;-71
2023/12/21 06:10:23;;;;;;;4.60;1.40;;;;;;;18.15;46.46;100109.75;5067826;28;20055;-68
2023/12/21 06:12:49;;;;;;;4.95;1.50;;;;;;;18.15;46.14;100099.19;5067918;28;20037;-70
2023/12/21 06:15:14;;;;;;;4.20;1.27;;;;;;;18.19;46.18;100090.03;5068012;28;20458;-70
2023/12/21 06:17:39;;;;;;;4.18;1.30;;;;;;;18.09;46.10;100066.34;5067940;28;20383;-68
2023/12/21 06:20:06;;;;;;;3.22;1.10;;;;;;;18.22;45.87;100077.41;5068151;28;20036;-69
2023/12/21 06:22:31;;;;;;;4.35;1.15;;;;;;;18.17;45.74;100050.63;5068061;28;20543;-70
2023/12/21 06:24:57;;;;;;;4.20;1.40;;;;;;;18.26;45.95;100043.63;5067604;28;20067;-68
2023/12/21 06:27:22;;;;;;;3.70;1.20;;;;;;;18.23;45.73;100025.47;5067922;28;20035;-69
2023/12/21 06:29:47;;;;;;;3.15;1.20;;;;;;;18.32;45.89;100021.97;5067718;28;20042;-70
2023/12/21 06:32:12;;;;;;;3.60;1.05;;;;;;;18.35;45.83;100049.88;5067250;28;20025;-70
2023/12/21 06:34:38;;;;;;;3.97;1.30;;;;;;;18.40;45.79;100055.53;5067765;28;20102;-70
2023/12/21 06:37:04;;;;;;;4.38;1.30;;;;;;;18.33;45.96;100043.91;5066909;28;20483;-69
2023/12/21 06:39:31;;;;;;;3.80;1.25;;;;;;;18.41;46.04;100063.31;5067170;28;20485;-68
2023/12/21 06:41:56;;;;;;;2.83;0.95;;;;;;;18.45;46.01;100054.13;5067501;28;20028;-70
2023/12/21 06:44:21;;;;;;;2.95;0.82;;;;;;;18.48;45.74;100051.22;5067158;28;20037;-71
2023/12/21 06:46:47;;;;;;;3.10;1.00;;;;;;;18.42;45.91;100040.38;5067034;28;20409;-69
2023/12/21 06:49:12;;;;;;;3.35;1.13;;;;;;;18.53;45.92;100052.56;5067821;28;20469;-69
2023/12/21 06:51:37;;;;;;;4.28;1.20;;;;;;;18.48;45.80;100023.97;5067245;28;20115;-69
2023/12/21 06:54:04;;;;;;;3.38;0.98;;;;;;;18.46;46.11;100023.28;5066825;28;20021;-69
2023/12/21 06:56:29;;;;;;;3.45;1.10;;;;;;;18.59;45.85;100030.88;5067413;28;20533;-70
2023/12/21 06:58:54;;;;;;;3.35;1.08;;;;;;;18.52;45.94;100000.75;5067495;28;20029;-71
2023/12/21 07:01:26;;;;;;;4.07;1.15;;;;;;;18.60;45.97;100008.78;5067588;28;20392;-69
2023/12/21 07:03:52;;;;;;;3.45;1.20;;;;;;;18.54;45.81;99980.34;5059871;28;20020;-69
2023/12/21 07:06:17;;;;;;;4.03;1.10;;;;;;;18.61;46.04;99998.09;5062951;28;20031;-69
2023/12/21 07:08:43;;;;;;;3.70;1.17;;;;;;;18.64;45.83;99992.50;5065467;28;20040;-71
2023/12/21 07:11:09;;;;;;;2.85;1.02;;;;;;;18.60;45.93;99974.47;5067722;28;20043;-69
2023/12/21 07:13:34;;;;;;;3.42;1.15;;;;;;;18.57;45.90;99958.94;5066712;28;20385;-70
2023/12/21 07:16:00;;;;;;;2.72;1.02;;;;;;;18.65;45.97;99964.31;5067718;28;20028;-69
2023/12/21 07:18:25;;;;;;;3.63;1.55;;;;;;;18.68;45.81;99977.19;5066484;28;20350;-68
2023/12/21 07:20:50;;;;;;;3.10;1.00;;;;;;;18.66;45.92;99965.97;5065967;28;20081;-70
2023/12/21 07:23:15;;;;;;;3.92;1.20;;;;;;;18.59;45.83;99963.06;5066086;28;20257;-70
2023/12/21 07:25:41;;;;;;;3.65;1.20;;;;;;;18.58;45.88;99956.16;5066218;28;20391;-70
2023/12/21 07:28:06;;;;;;;3.40;1.10;;;;;;;18.69;45.97;99963.00;5065689;28;20426;-69
2023/12/21 07:30:31;;;;;;;3.25;1.00;;;;;;;18.59;45.65;99925.31;5065564;28;20071;-71
2023/12/21 07:32:57;;;;;;;4.32;1.30;;;;;;;18.68;45.77;99941.06;5065569;28;20032;-68
2023/12/21 07:35:23;;;;;;;3.45;0.93;;;;;;;18.68;45.84;99934.97;5066003;28;20020;-68
2023/12/21 07:37:48;;;;;;;3.88;0.98;;;;;;;18.68;45.59;99927.88;5065685;28;20037;-70
2023/12/21 07:40:13;;;;;;;3.97;1.17;;;;;;;18.58;45.82;99903.38;5065674;28;20535;-68
2023/12/21 07:42:39;;;;;;;2.60;1.00;;;;;;;18.60;45.96;99884.75;5065689;28;20108;-68
2023/12/21 07:45:05;;;;;;;2.92;0.98;;;;;;;18.67;45.89;99902.47;5065750;28;20135;-69
2023/12/21 07:47:30;;;;;;;2.63;0.80;;;;;;;18.61;45.63;99889.03;5065455;28;20090;-70
2023/12/21 07:49:56;;;;;;;3.40;0.90;;;;;;;18.69;45.70;99907.59;5064262;28;20040;-69
2023/12/21 07:52:21;;;;;;;3.80;1.13;;;;;;;18.72;45.71;99914.38;5066426;28;20040;-69
2023/12/21 07:54:46;;;;;;;2.58;0.85;;;;;;;18.69;45.84;99912.88;5064280;28;20098;-69
2023/12/21 07:57:12;;;;;;;2.70;0.90;;;;;;;18.62;45.70;99890.72;5066277;28;20035;-69
2023/12/21 07:59:38;;;;;;;4.70;1.23;;;;;;;18.59;45.65;99902.38;5065941;28;20046;-70
2023/12/21 08:02:03;;;;;;;3.65;1.00;;;;;;;18.71;45.66;99910.06;5064852;28;20127;-70
2023/12/21 08:04:29;;;;;;;3.55;1.10;;;;;;;18.71;45.68;99918.84;5063965;28;20385;-69
2023/12/21 08:06:54;;;;;;;3.00;0.90;;;;;;;18.66;45.54;99892.06;5065108;28;20523;-68
2023/12/21 08:09:19;;;;;;;4.22;1.08;;;;;;;18.70;45.76;99913.72;5064987;28;20029;-69
2023/12/21 08:11:45;;;;;;;4.13;1.30;;;;;;;18.69;45.86;99889.09;5065630;28;20365;-68
2023/12/21 08:14:10;;;;;;;5.25;1.17;;;;;;;18.70;45.96;99893.41;5065109;28;20401;-68
2023/12/21 08:16:36;;;;;;;2.20;0.80;;;;;;;18.61;45.78;99875.84;5065535;28;20074;-68
2023/12/21 08:19:02;;;;;;;3.28;1.10;;;;;;;18.70;45.88;99897.88;5065194;28;20037;-70
2023/12/21 08:21:27;;;;;;;4.38;1.13;;;;;;;18.63;45.83;99887.09;5065098;28;20484;-69
2023/12/21 08:23:52;;;;;;;2.92;0.98;;;;;;;18.70;45.95;99877.59;5065236;28;20035;-68
2023/12/21 08:26:18;;;;;;;3.25;0.85;;;;;;;18.71;45.97;99867.84;5065168;28;20377;-68
2023/12/21 08:28:43;;;;;;;3.42;0.88;;;;;;;18.59;46.04;99851.44;5065308;28;20431;-70
2023/12/21 08:31:09;;;;;;;2.27;0.80;;;;;;;18.70;46.16;99856.47;5065017;28;20028;-69
2023/12/21 08:33:35;;;;;;;3.70;1.10;;;;;;;18.66;46.39;99863.88;5065445;28;20644;-69
2023/12/21 08:36:00;;;;;;;3.45;1.02;;;;;;;18.70;46.49;99874.13;5065498;28;20068;-69
2023/12/21 08:38:26;;;;;;;2.92;0.90;;;;;;;18.57;46.40;99851.56;5065285;28;20087;-69
2023/12/21 08:40:51;;;;;;;3.53;0.97;;;;;;;18.68;46.65;99839.97;5065329;28;20037;-69
2023/12/21 08:43:16;;;;;;;5.78;1.20;;;;;;;18.67;46.63;99854.97;5065449;28;20344;-68
2023/12/21 08:45:42;;;;;;;6.65;1.10;;;;;;;18.60;46.76;99840.72;5065427;28;20108;-70
2023/12/21 08:48:07;;;;;;;3.43;1.10;;;;;;;18.70;46.73;99863.56;5065203;28;20057;-70
2023/12/21 08:50:32;;;;;;;3.95;1.33;;;;;;;18.70;46.86;99861.75;5065800;28;20298;-71
2023/12/21 08:53:00;;;;;;;3.15;0.80;;;;;;;18.67;46.89;99847.06;5065840;28;20028;-68
2023/12/21 08:55:27;;;;;;;2.13;0.70;;;;;;;18.72;47.08;99846.56;5065809;28;20028;-70
2023/12/21 08:57:52;;;;;;;3.00;0.90;;;;;;;18.68;46.85;99837.31;5065940;28;20032;-70
2023/12/21 09:00:18;;;;;;;2.85;1.08;;;;;;;18.63;46.91;99811.38;5065581;28;20093;-69
2023/12/21 09:02:43;;;;;;;3.17;1.00;;;;;;;18.65;47.15;99822.63;5063939;28;20032;-69
2023/12/21 09:05:12;;;;;;;2.70;0.82;;;;;;;18.72;47.84;99825.47;5065149;28;20140;-68
2023/12/21 09:07:37;;;;;;;3.15;0.90;;;;;;;18.64;47.71;99818.34;5065070;28;20268;-69
2023/12/21 09:10:03;;;;;;;2.95;0.75;;;;;;;18.74;47.58;99830.59;5064751;28;20482;-69
2023/12/21 09:12:29;;;;;;;3.75;0.95;;;;;;;18.66;47.42;99794.44;5064355;28;20039;-69
2023/12/21 09:14:54;;;;;;;3.00;0.80;;;;;;;18.76;47.64;99818.91;5064606;28;20033;-69
2023/12/21 09:17:20;;;;;;;3.20;0.93;;;;;;;18.67;47.78;99796.91;5067576;28;20040;-69
2023/12/21 09:19:45;;;;;;;2.72;0.90;;;;;;;18.66;47.84;99802.34;5069227;28;20048;-68
2023/12/21 09:22:11;;;;;;;2.03;0.70;;;;;;;18.75;47.72;99819.06;5068912;28;20356;-70
2023/12/21 09:24:39;;;;;;;3.22;0.70;;;;;;;18.69;47.71;99817.84;5069142;28;20086;-70
2023/12/21 09:27:05;;;;;;;3.83;1.00;;;;;;;18.73;47.66;99800.75;5068734;28;20414;-69
2023/12/21 09:29:30;;;;;;;2.70;0.82;;;;;;;18.72;48.08;99799.06;5069242;28;20029;-69
2023/12/21 09:31:56;;;;;;;2.35;0.88;;;;;;;18.70;47.76;99768.56;5068521;28;20044;-69
2023/12/21 09:34:21;;;;;;;2.33;0.88;;;;;;;18.77;47.67;99791.53;5068150;28;20028;-70
2023/12/21 09:36:47;;;;;;;2.17;0.80;;;;;;;18.68;47.81;99789.81;5067491;28;20033;-69
2023/12/21 09:39:12;;;;;;;2.90;0.80;;;;;;;18.80;47.75;99799.16;5067703;28;20257;-69
2023/12/21 09:41:39;;;;;;;2.17;0.70;;;;;;;18.75;47.70;99776.84;5067457;28;20032;-68
2023/12/21 09:44:05;;;;;;;2.95;0.75;;;;;;;18.80;47.74;99803.59;5067280;28;20041;-70
2023/12/21 09:46:38;;;;;;;2.13;0.68;;;;;;;18.78;47.68;99795.81;5068155;28;20472;-68
2023/12/21 09:49:06;;;;;;;3.42;0.85;;;;;;;18.80;47.74;99788.59;5068159;28;20485;-69
2023/12/21 09:51:33;;;;;;;2.97;0.73;;;;;;;18.79;47.87;99779.00;5068045;28;20025;-69
2023/12/21 09:54:01;;;;;;;2.92;0.85;;;;;;;18.70;47.80;99779.13;5067830;28;20036;-69
2023/12/21 09:56:27;;;;;;;2.50;0.82;;;;;;;18.80;47.71;99785.09;5067519;28;20107;-68
2023/12/21 09:58:54;;;;;;;3.17;0.95;;;;;;;18.76;47.80;99779.31;5067605;28;20460;-70
2023/12/21 10:01:19;;;;;;;3.72;0.80;;;;;;;18.79;47.66;99786.13;5067736;28;20024;-68
2023/12/21 10:03:44;;;;;;;1.63;0.70;;;;;;;18.79;47.97;99770.28;5066442;28;20094;-69
2023/12/21 10:06:11;;;;;;;3.13;0.90;;;;;;;18.73;47.71;99760.34;5068003;28;20047;-69
2023/12/21 10:08:36;;;;;;;3.40;1.02;;;;;;;18.79;47.82;99783.47;5067818;28;20064;-69
2023/12/21 10:11:06;;;;;;;3.50;0.80;;;;;;;18.79;47.82;99778.19;5067554;28;20056;-68
2023/12/21 10:13:32;;;;;;;5.03;0.98;;;;;;;18.73;47.84;99760.34;5067606;28;20119;-69
2023/12/21 10:16:03;;;;;;;2.53;0.82;;;;;;;18.75;47.86;99772.38;5067047;28;20117;-70
2023/12/21 10:18:31;;;;;;;3.58;0.75;;;;;;;18.55;47.48;99750.66;5066085;28;20037;-70
2023/12/21 10:20:57;;;;;;;3.40;0.82;;;;;;;18.77;47.83;99770.44;5067710;28;20512;-68
2023/12/21 10:23:24;;;;;;;2.88;0.60;;;;;;;18.79;47.81;99759.72;5051850;28;20110;-69
2023/12/21 10:25:51;;;;;;;3.33;0.85;;;;;;;18.77;48.10;99751.94;5067740;28;20041;-69
2023/12/21 10:28:21;;;;;;;3.40;1.00;;;;;;;18.68;47.90;99758.97;5066869;28;20033;-68
2023/12/21 10:30:52;;;;;;;3.55;0.90;;;;;;;18.74;47.94;99772.53;5065680;28;20389;-68
2023/12/21 10:33:17;;;;;;;3.65;0.98;;;;;;;18.72;47.80;99761.31;5067928;28;20148;-69
2023/12/21 10:35:42;;;;;;;2.55;0.60;;;;;;;18.71;47.81;99765.75;5068003;28;20036;-69
2023/12/21 10:38:09;;;;;;;4.93;0.93;;;;;;;18.71;47.69;99764.91;5068182;28;20036;-70
2023/12/21 10:40:34;;;;;;;2.63;0.80;;;;;;;18.77;47.81;99772.22;5067182;28;20028;-70
2023/12/21 10:42:59;;;;;;;2.70;0.70;;;;;;;18.70;47.66;99745.63;5067619;28;20025;-69
2023/12/21 10:45:25;;;;;;;2.70;0.88;;;;;;;18.76;47.87;99771.41;5067690;28;20265;-70
2023/12/21 10:47:55;;;;;;;4.93;0.75;;;;;;;18.77;47.74;99773.06;5056388;28;20718;-68
2023/12/21 10:50:20;;;;;;;4.75;1.17;;;;;;;18.64;47.76;99743.59;5047782;28;20090;-69
2023/12/21 10:52:47;;;;;;;3.00;0.80;;;;;;;18.69;47.84;99757.16;5047354;28;20033;-70
2023/12/21 10:55:17;;;;;;;3.88;0.80;;;;;;;18.76;47.89;99776.69;5029362;28;20171;-70
2023/12/21 10:57:45;;;;;;;2.67;0.82;;;;;;;18.70;47.67;99747.44;5046962;28;20069;-70
2023/12/21 11:00:13;;;;;;;3.95;0.80;;;;;;;18.79;47.78;99744.69;5047424;28;20060;-69
2023/12/21 11:02:45;;;;;;;3.70;0.80;;;;;;;18.66;48.02;99734.56;5043365;28;20071;-70
2023/12/21 11:05:11;;;;;;;2.53;0.70;;;;;;;18.78;47.74;99756.22;5040744;28;20056;-71
2023/12/21 11:07:37;;;;;;;2.97;0.75;;;;;;;18.79;47.95;99741.25;5038352;28;20389;-69
2023/12/21 11:10:04;;;;;;;3.70;1.00;;;;;;;18.78;47.91;99721.91;5038168;28;20098;-69
2023/12/21 11:12:29;;;;;;;2.45;0.63;;;;;;;18.68;48.08;99710.66;5038823;28;20033;-71
2023/12/21 11:14:56;;;;;;;2.33;0.70;;;;;;;18.76;47.80;99731.00;5046520;28;20029;-69
2023/12/21 11:17:21;;;;;;;3.95;0.73;;;;;;;18.70;48.11;99727.16;5046636;28;20288;-68
2023/12/21 11:19:48;;;;;;;2.35;0.77;;;;;;;18.68;47.99;99742.31;5042152;28;20458;-69
2023/12/21 11:22:13;;;;;;;3.10;0.90;;;;;;;18.79;48.05;99738.59;5039372;28;20512;-70